South Duxbury, MA

11:16 AM EST on December 04, 2016 (GMT -0500)
Goose Point | | Change Station

Elev 16 ft 42.01 °N, 70.68 °W | Updated 5 minutes ago

Mostly Cloudy
Mostly Cloudy
37.8 °F
Feels Like 29 °F
N
15.0
Wind Variable Wind from SW

Today
High -- | Low -- °F
--% Chance of Precip.
Yesterday
High -- | Low -- °F
Precip. -- in
Pressure 30.17 in
Visibility 10.0 miles
Clouds Mostly Cloudy 3700 ft
Windchill 29 °F
Dew Point 25 °F
Humidity 61%
Rainfall 0.00 in
Snow Depth Not available.
6:54 AM 4:11 PM
Waxing Crescent, 23% visible
METAR KGHG 041555Z AUTO VRB05G14KT 10SM BKN037 03/M06 A3017 RMK AO2
Pressure 30.17 in
Visibility 10.0 miles
Clouds Mostly Cloudy 3700 ft
Windchill 29 °F
Dew Point 25 °F
Humidity 61%
Rainfall 0.00 in
Snow Depth Not available.
6:54 AM 4:11 PM
Waxing Crescent, 23% visible
METAR KGHG 041555Z AUTO VRB05G14KT 10SM BKN037 03/M06 A3017 RMK AO2

10-Day Weather Forecast

Almanac

Astronomy

Dec. 04, 2016 Rise Set
Actual Time
Civil Twilight
Nautical Twilight
Astronomical Twilight
Moon
Length of Visible Light
Length of Day
Tomorrow will be .
, % of the Moon is Illuminated

Today's Extremes

State Highs State Lows

Community

WunderPhotos

Upload Photos

1,955,616 photos uploaded!

WunderBlog® & News

Nearby

Air Quality

  Air Quality AQ Index Pollutant
Not available.

Snow Depth

Station Depth Elevation

Earthquake Activity

City Distance Mag. Time & Date
Minimum magnitude displayed is 2.5.

Coastal Water Temperatures

Place Temperature

Stations

Nearby Weather Stations

Station Location Temp. Windchill Dew Point Humidity Wind Precip. Elev Updated Type
                   

Watches & Warnings

There are currently no watches in effect.